createdAt,value
2023-02-17T00:03:07.527Z,8.00
2023-02-17T00:08:31.820Z,8.00
2023-02-17T00:13:56.212Z,8.00
2023-02-17T00:19:24.981Z,7.90
2023-02-17T00:24:46.760Z,7.80
2023-02-17T00:30:09.387Z,7.80
2023-02-17T00:35:31.159Z,7.70
2023-02-17T00:40:52.503Z,7.70
2023-02-17T00:46:14.207Z,7.60
2023-02-17T00:51:35.377Z,7.70
2023-02-17T00:56:58.444Z,7.80
2023-02-17T01:02:20.023Z,7.90
2023-02-17T01:07:41.829Z,7.90
2023-02-17T01:13:03.234Z,8.00
2023-02-17T01:18:25.292Z,8.00
2023-02-17T01:23:50.603Z,8.00
2023-02-17T01:29:12.232Z,8.00
2023-02-17T01:34:33.972Z,8.00
2023-02-17T01:39:55.391Z,8.10
2023-02-17T01:45:19.844Z,8.00
2023-02-17T01:50:50.309Z,8.10
2023-02-17T01:56:13.081Z,8.00
2023-02-17T02:01:34.816Z,8.00
2023-02-17T02:06:56.442Z,8.10
2023-02-17T02:12:20.805Z,8.10
2023-02-17T02:18:00.155Z,8.00
2023-02-17T02:24:00.805Z,8.00
2023-02-17T02:29:24.875Z,8.20
2023-02-17T02:35:06.874Z,8.20
2023-02-17T02:40:33.439Z,8.20
2023-02-17T02:45:55.041Z,8.20
2023-02-17T02:51:41.655Z,8.10
2023-02-17T02:57:16.978Z,8.20
2023-02-17T03:03:12.881Z,8.20
2023-02-17T03:08:42.915Z,8.10
2023-02-17T03:14:10.292Z,8.10
2023-02-17T03:19:32.143Z,8.00
2023-02-17T03:24:53.958Z,8.10
2023-02-17T03:30:16.057Z,7.90
2023-02-17T03:35:37.179Z,7.90
2023-02-17T03:40:58.426Z,8.00
2023-02-17T03:46:19.967Z,7.90
2023-02-17T03:51:41.701Z,8.00
2023-02-17T03:57:03.417Z,7.80
2023-02-17T04:02:24.842Z,7.60
2023-02-17T04:07:46.490Z,7.40
2023-02-17T04:13:07.942Z,7.20
2023-02-17T04:18:29.818Z,7.10
2023-02-17T04:23:51.318Z,7.00
2023-02-17T04:29:12.601Z,7.10
2023-02-17T04:34:33.963Z,7.10
2023-02-17T04:39:55.565Z,7.20
2023-02-17T04:45:17.022Z,7.20
2023-02-17T04:50:38.443Z,7.40
2023-02-17T04:56:00.126Z,7.40
2023-02-17T05:01:21.798Z,7.50
2023-02-17T05:06:43.209Z,7.40
2023-02-17T05:12:06.416Z,7.30
2023-02-17T05:17:27.794Z,7.30
2023-02-17T05:22:49.147Z,7.30
2023-02-17T05:28:10.641Z,7.30
2023-02-17T05:33:32.308Z,7.20
2023-02-17T05:38:53.839Z,7.40
2023-02-17T05:44:15.201Z,7.20
2023-02-17T05:49:36.461Z,7.30
2023-02-17T05:54:58.007Z,7.30
2023-02-17T06:00:19.648Z,7.30
2023-02-17T06:05:41.506Z,7.40
2023-02-17T06:11:03.518Z,7.40
2023-02-17T06:16:25.237Z,7.40
2023-02-17T06:21:46.770Z,7.50
2023-02-17T06:27:08.255Z,7.50
2023-02-17T06:32:29.797Z,7.40
2023-02-17T06:37:51.490Z,7.50
2023-02-17T06:43:12.935Z,7.50
2023-02-17T06:48:34.894Z,7.60
2023-02-17T06:53:56.858Z,7.50
2023-02-17T06:59:18.069Z,7.50
2023-02-17T07:04:41.473Z,7.50
2023-02-17T07:10:03.632Z,7.50
2023-02-17T07:15:24.915Z,7.50
2023-02-17T07:20:46.429Z,7.70
2023-02-17T07:26:10.402Z,7.60
2023-02-17T07:31:31.876Z,7.70
2023-02-17T07:36:53.402Z,7.80
2023-02-17T07:42:15.057Z,7.80
2023-02-17T07:47:36.808Z,7.90
2023-02-17T07:52:58.601Z,7.90
2023-02-17T07:58:19.950Z,7.80
2023-02-17T08:03:41.630Z,7.90
2023-02-17T08:09:21.432Z,7.80
2023-02-17T08:14:42.905Z,7.90
2023-02-17T08:20:08.784Z,8.00
2023-02-17T08:25:34.016Z,8.00
2023-02-17T08:30:55.307Z,8.00
2023-02-17T08:36:16.831Z,8.10
2023-02-17T08:41:39.461Z,8.10
2023-02-17T08:47:00.811Z,8.10
2023-02-17T08:52:22.648Z,8.20
2023-02-17T08:57:44.512Z,8.20
2023-02-17T09:03:07.687Z,8.30
2023-02-17T09:08:29.212Z,8.40
2023-02-17T09:13:50.678Z,8.50
2023-02-17T09:19:12.275Z,8.60
2023-02-17T09:24:35.101Z,8.70
2023-02-17T09:29:56.611Z,8.90
2023-02-17T09:35:19.734Z,9.00
2023-02-17T09:40:49.061Z,9.00
2023-02-17T09:46:38.541Z,9.00
2023-02-17T09:52:19.244Z,9.10
2023-02-17T09:58:14.995Z,9.30
2023-02-17T10:03:41.635Z,9.40
2023-02-17T10:09:24.504Z,9.60
2023-02-17T10:15:09.491Z,9.50
2023-02-17T10:20:45.571Z,9.70
2023-02-17T10:26:36.236Z,9.70
2023-02-17T10:32:09.024Z,9.60
2023-02-17T10:37:38.702Z,9.80
2023-02-17T10:43:07.776Z,9.90
2023-02-17T10:48:39.249Z,9.90
2023-02-17T10:54:17.974Z,10.10
2023-02-17T10:59:43.082Z,10.00
2023-02-17T11:05:05.109Z,9.90
2023-02-17T11:10:35.679Z,9.90
2023-02-17T11:15:57.828Z,9.80
2023-02-17T11:21:19.871Z,9.80
2023-02-17T11:26:41.129Z,9.60
2023-02-17T11:32:12.469Z,9.80
2023-02-17T11:37:37.908Z,9.70
2023-02-17T11:43:02.125Z,9.80
2023-02-17T11:48:38.004Z,10.00
2023-02-17T11:54:18.118Z,10.10
2023-02-17T12:00:05.795Z,10.20
2023-02-17T12:05:37.606Z,10.20
2023-02-17T12:10:59.038Z,10.20
2023-02-17T12:16:59.567Z,10.20
2023-02-17T12:22:33.984Z,10.30
2023-02-17T12:28:13.627Z,10.40
2023-02-17T12:34:01.539Z,10.30
2023-02-17T12:39:50.174Z,10.20
2023-02-17T12:45:18.931Z,10.40
2023-02-17T12:50:56.710Z,10.30
2023-02-17T12:56:34.033Z,10.50
2023-02-17T13:02:00.761Z,10.50
2023-02-17T13:07:54.834Z,10.70
2023-02-17T13:13:34.344Z,10.60
2023-02-17T13:18:55.589Z,10.70
2023-02-17T13:24:34.758Z,10.80
2023-02-17T13:30:04.868Z,10.90
2023-02-17T13:35:26.400Z,10.90
2023-02-17T13:40:52.862Z,10.90
2023-02-17T13:46:26.187Z,11.00
2023-02-17T13:51:47.403Z,11.00
2023-02-17T13:57:30.397Z,10.90
2023-02-17T14:02:58.100Z,11.00
2023-02-17T14:08:29.978Z,11.10
2023-02-17T14:13:54.740Z,11.00
2023-02-17T14:19:19.634Z,11.10
2023-02-17T14:24:41.258Z,11.20
2023-02-17T14:30:05.382Z,11.10
2023-02-17T14:35:26.779Z,11.00
2023-02-17T14:40:53.461Z,11.00
2023-02-17T14:46:19.512Z,11.00
2023-02-17T14:51:41.075Z,10.90
2023-02-17T14:57:12.928Z,10.90
2023-02-17T15:02:34.868Z,10.90
2023-02-17T15:07:56.385Z,10.90
2023-02-17T15:13:21.960Z,10.90
2023-02-17T15:18:43.664Z,10.80
2023-02-17T15:24:17.011Z,10.90
2023-02-17T15:29:38.207Z,10.90
2023-02-17T15:34:59.814Z,11.00
2023-02-17T15:40:27.565Z,11.00
2023-02-17T15:45:49.257Z,11.00
2023-02-17T15:51:15.252Z,11.00
2023-02-17T15:56:57.091Z,11.00
2023-02-17T16:02:23.921Z,11.00
2023-02-17T16:07:45.680Z,11.00
2023-02-17T16:13:08.114Z,11.00
2023-02-17T16:18:30.123Z,11.10
2023-02-17T16:23:52.736Z,11.10
2023-02-17T16:29:20.370Z,11.10
2023-02-17T16:34:42.056Z,11.10
2023-02-17T16:40:05.012Z,11.10
2023-02-17T16:45:30.141Z,11.10
2023-02-17T16:50:52.186Z,11.10
2023-02-17T16:56:29.004Z,11.00
2023-02-17T17:01:53.228Z,11.10
2023-02-17T17:07:16.266Z,11.20
2023-02-17T17:12:37.822Z,11.10
2023-02-17T17:18:00.781Z,11.10
2023-02-17T17:23:22.262Z,11.10
2023-02-17T17:28:44.477Z,11.20
2023-02-17T17:34:06.241Z,11.30
2023-02-17T17:39:27.507Z,11.40
2023-02-17T17:44:49.045Z,11.50
2023-02-17T17:50:18.388Z,11.50
2023-02-17T17:55:39.527Z,11.50
2023-02-17T18:01:01.631Z,11.50
2023-02-17T18:06:27.192Z,11.50
2023-02-17T18:11:50.630Z,11.50
2023-02-17T18:17:14.457Z,11.40
2023-02-17T18:22:35.811Z,11.50
2023-02-17T18:27:57.403Z,11.40
2023-02-17T18:33:19.172Z,11.10
2023-02-17T18:38:40.945Z,10.80
2023-02-17T18:44:03.992Z,10.90
2023-02-17T18:49:25.270Z,10.80
2023-02-17T18:54:46.662Z,10.80
2023-02-17T19:00:10.288Z,10.80
2023-02-17T19:05:31.729Z,10.60
2023-02-17T19:10:53.260Z,10.60
2023-02-17T19:16:17.733Z,10.60
2023-02-17T19:21:38.876Z,10.40
2023-02-17T19:27:00.375Z,10.30
2023-02-17T19:32:21.963Z,10.20
2023-02-17T19:37:43.323Z,10.00
2023-02-17T19:43:04.680Z,9.80
2023-02-17T19:48:26.290Z,9.50
2023-02-17T19:53:47.754Z,9.30
2023-02-17T19:59:09.177Z,9.20
2023-02-17T20:04:30.917Z,9.20
2023-02-17T20:09:52.376Z,9.10
2023-02-17T20:15:14.025Z,9.20
2023-02-17T20:20:35.599Z,9.10
2023-02-17T20:25:58.545Z,9.20
2023-02-17T20:31:21.442Z,9.10
2023-02-17T20:36:42.998Z,9.10
2023-02-17T20:42:05.275Z,9.10
2023-02-17T20:47:26.585Z,9.20
2023-02-17T20:52:48.831Z,9.10
2023-02-17T20:58:12.380Z,9.10
2023-02-17T21:03:33.704Z,9.20
2023-02-17T21:08:58.457Z,9.10
2023-02-17T21:14:20.004Z,9.10
2023-02-17T21:19:41.443Z,9.10
2023-02-17T21:25:04.176Z,9.00
2023-02-17T21:30:25.570Z,9.00
2023-02-17T21:35:47.047Z,9.00
2023-02-17T21:41:11.094Z,8.90
2023-02-17T21:46:32.768Z,9.00
2023-02-17T21:51:54.177Z,9.00
2023-02-17T21:57:15.769Z,9.10
2023-02-17T22:02:37.416Z,9.30
2023-02-17T22:07:59.033Z,9.30
2023-02-17T22:13:20.642Z,9.30
2023-02-17T22:18:42.408Z,9.20
2023-02-17T22:24:03.728Z,9.20
2023-02-17T22:29:25.280Z,9.20
2023-02-17T22:34:46.850Z,9.20
2023-02-17T22:40:09.078Z,9.10
2023-02-17T22:45:30.897Z,9.10
2023-02-17T22:50:52.446Z,9.10
2023-02-17T22:56:14.668Z,9.20
2023-02-17T23:01:37.395Z,9.40
2023-02-17T23:06:59.179Z,9.40
2023-02-17T23:12:20.781Z,9.40
2023-02-17T23:17:57.503Z,9.30
2023-02-17T23:23:19.968Z,9.10
2023-02-17T23:28:41.263Z,8.80
2023-02-17T23:34:02.500Z,8.70
2023-02-17T23:39:24.212Z,8.60
2023-02-17T23:44:45.710Z,8.40
2023-02-17T23:50:07.784Z,8.40
2023-02-17T23:55:29.385Z,8.30
